Terminal Aerodrome Forecast
Issued by NWS Springfield, MO

Home | Current Version | Previous Version | Text Only | Print | Product List | Glossary On
Versions: 1 2 3 4 5 6 7 8 9 10 11 12 13 14 15 16 17 18 19 20 21 22 23 24 25 26 27 28 29 30 31 32 33 34 35 36 37 38 39
555
FTUS43 KSGF 301406 AAB
TAFSGF
TAF AMD
KSGF 301406Z 3014/0112 14012G20KT P6SM VCSH SCT006 BKN015 OVC045
      TEMPO 3014/3018 BKN006
     FM301800 20013G23KT P6SM BKN030
     FM010800 23014G23KT P6SM OVC020=

USA.gov is the U.S. government's official web portal to all federal, state and local government web resources and services.